createdAt,value
2019-03-08T00:00:57.420Z,99.90
2019-03-08T00:03:26.648Z,99.90
2019-03-08T00:05:55.827Z,99.90
2019-03-08T00:08:25.019Z,99.90
2019-03-08T00:10:54.218Z,99.90
2019-03-08T00:13:23.679Z,99.90
2019-03-08T00:15:52.897Z,99.90
2019-03-08T00:18:22.112Z,99.90
2019-03-08T00:20:51.312Z,99.90
2019-03-08T00:23:20.513Z,99.90
2019-03-08T00:25:49.748Z,99.90
2019-03-08T00:28:19.044Z,99.90
2019-03-08T00:30:48.260Z,99.90
2019-03-08T00:33:17.465Z,99.90
2019-03-08T00:35:46.689Z,99.90
2019-03-08T00:38:15.854Z,99.90
2019-03-08T00:40:45.312Z,99.90
2019-03-08T00:43:14.508Z,99.90
2019-03-08T00:45:43.741Z,99.90
2019-03-08T00:48:12.944Z,99.90
2019-03-08T00:50:42.155Z,99.90
2019-03-08T00:53:11.324Z,99.90
2019-03-08T00:55:40.654Z,99.90
2019-03-08T00:58:09.934Z,99.90
2019-03-08T01:00:39.136Z,99.90
2019-03-08T01:03:08.308Z,99.90
2019-03-08T01:05:37.615Z,99.90
2019-03-08T01:08:06.883Z,99.90
2019-03-08T01:10:36.129Z,99.90
2019-03-08T01:13:05.327Z,99.90
2019-03-08T01:15:34.539Z,99.90
2019-03-08T01:18:03.747Z,99.90
2019-03-08T01:20:32.947Z,99.90
2019-03-08T01:23:02.483Z,99.90
2019-03-08T01:25:31.661Z,99.90
2019-03-08T01:28:09.089Z,99.90
2019-03-08T01:30:38.813Z,99.90
2019-03-08T01:33:08.103Z,99.90
2019-03-08T01:35:37.627Z,99.90
2019-03-08T01:38:06.855Z,99.90
2019-03-08T01:40:36.055Z,99.90
2019-03-08T01:43:05.645Z,99.90
2019-03-08T01:45:34.877Z,99.90
2019-03-08T01:48:04.298Z,99.90
2019-03-08T01:50:33.483Z,99.90
2019-03-08T01:53:02.696Z,99.90
2019-03-08T01:55:31.907Z,99.90
2019-03-08T01:58:01.131Z,99.90
2019-03-08T02:00:30.327Z,99.90
2019-03-08T02:02:59.832Z,99.90
2019-03-08T02:05:29.131Z,99.90
2019-03-08T02:07:58.335Z,99.90
2019-03-08T02:10:27.531Z,99.90
2019-03-08T02:12:56.766Z,99.90
2019-03-08T02:15:25.966Z,99.90
2019-03-08T02:17:55.146Z,99.90
2019-03-08T02:20:24.531Z,99.90
2019-03-08T02:22:53.840Z,99.90
2019-03-08T02:25:23.023Z,99.90
2019-03-08T02:27:52.264Z,99.90
2019-03-08T02:30:21.451Z,99.90
2019-03-08T02:32:50.661Z,99.90
2019-03-08T02:35:20.233Z,99.90
2019-03-08T02:37:49.456Z,99.90
2019-03-08T02:40:38.048Z,99.90
2019-03-08T02:43:12.096Z,99.90
2019-03-08T02:45:41.272Z,99.90
2019-03-08T02:48:10.507Z,99.90
2019-03-08T02:50:39.707Z,99.90
2019-03-08T02:53:08.943Z,99.90
2019-03-08T02:55:38.147Z,99.90
2019-03-08T02:58:07.359Z,99.90
2019-03-08T03:00:45.977Z,99.90
2019-03-08T03:03:16.476Z,99.90
2019-03-08T03:05:45.649Z,99.90
2019-03-08T03:08:14.971Z,99.90
2019-03-08T03:10:44.163Z,99.90
2019-03-08T03:13:13.390Z,99.90
2019-03-08T03:15:42.600Z,99.90
2019-03-08T03:18:12.597Z,99.90
2019-03-08T03:20:42.070Z,99.90
2019-03-08T03:23:11.353Z,99.90
2019-03-08T03:25:43.350Z,99.90
2019-03-08T03:28:12.564Z,99.90
2019-03-08T03:30:41.776Z,99.90
2019-03-08T03:33:10.968Z,99.90
2019-03-08T03:35:40.203Z,99.90
2019-03-08T03:38:09.439Z,99.90
2019-03-08T03:40:38.667Z,99.90
2019-03-08T03:43:07.851Z,99.90
2019-03-08T03:45:37.062Z,99.90
2019-03-08T03:48:06.563Z,99.90
2019-03-08T03:50:35.764Z,99.90
2019-03-08T03:53:04.982Z,99.90
2019-03-08T03:55:34.194Z,99.90
2019-03-08T03:58:03.408Z,99.90
2019-03-08T04:00:32.603Z,99.90
2019-03-08T04:03:01.808Z,99.90
2019-03-08T04:05:31.003Z,99.90
2019-03-08T04:08:00.219Z,99.90
2019-03-08T04:10:29.420Z,99.90
2019-03-08T04:12:58.636Z,99.90
2019-03-08T04:15:28.102Z,99.90
2019-03-08T04:17:57.304Z,99.90
2019-03-08T04:20:26.495Z,99.90
2019-03-08T04:22:55.768Z,99.90
2019-03-08T04:25:24.959Z,99.90
2019-03-08T04:27:54.243Z,99.90
2019-03-08T04:30:23.647Z,99.90
2019-03-08T04:32:52.867Z,99.90
2019-03-08T04:35:22.057Z,99.90
2019-03-08T04:37:51.259Z,99.90
2019-03-08T04:40:20.455Z,99.90
2019-03-08T04:42:49.768Z,99.90
2019-03-08T04:45:18.983Z,99.90
2019-03-08T04:47:48.203Z,99.90
2019-03-08T04:50:17.495Z,99.90
2019-03-08T04:52:46.696Z,99.90
2019-03-08T04:55:16.870Z,99.90
2019-03-08T04:57:46.960Z,99.90
2019-03-08T05:00:16.365Z,99.90
2019-03-08T05:02:45.585Z,99.90
2019-03-08T05:05:14.772Z,99.90
2019-03-08T05:07:43.976Z,99.90
2019-03-08T05:10:14.307Z,99.90
2019-03-08T05:12:43.753Z,99.90
2019-03-08T05:15:13.132Z,99.90
2019-03-08T05:17:42.354Z,99.90
2019-03-08T05:20:11.950Z,99.90
2019-03-08T05:22:41.271Z,99.90
2019-03-08T05:25:10.468Z,99.90
2019-03-08T05:27:39.704Z,99.90
2019-03-08T05:30:09.627Z,99.90
2019-03-08T05:32:38.835Z,99.90
2019-03-08T05:35:08.280Z,99.90
2019-03-08T05:37:37.499Z,99.90
2019-03-08T05:40:07.295Z,99.90
2019-03-08T05:42:36.525Z,99.90
2019-03-08T05:45:06.039Z,99.90
2019-03-08T05:47:35.333Z,99.90
2019-03-08T05:50:05.067Z,99.90
2019-03-08T05:52:34.294Z,99.90
2019-03-08T05:55:03.806Z,99.90
2019-03-08T05:57:33.142Z,99.90
2019-03-08T06:00:02.431Z,99.90
2019-03-08T06:02:31.651Z,99.90
2019-03-08T06:05:00.851Z,99.90
2019-03-08T06:07:30.163Z,99.90
2019-03-08T06:09:59.499Z,99.90
2019-03-08T06:12:28.703Z,99.90
2019-03-08T06:14:57.936Z,99.90
2019-03-08T06:17:27.220Z,99.90
2019-03-08T06:19:56.519Z,99.90
2019-03-08T06:22:25.870Z,99.90
2019-03-08T06:24:55.127Z,99.90
2019-03-08T06:27:24.503Z,99.90
2019-03-08T06:29:53.744Z,99.90
2019-03-08T06:32:22.957Z,99.90
2019-03-08T06:34:52.312Z,99.90
2019-03-08T06:37:21.515Z,99.90
2019-03-08T06:39:50.740Z,99.90
2019-03-08T06:42:20.159Z,99.90
2019-03-08T06:44:49.525Z,99.90
2019-03-08T06:47:18.715Z,99.90
2019-03-08T06:49:47.945Z,99.90
2019-03-08T06:52:17.098Z,99.90
2019-03-08T06:54:46.489Z,99.90
2019-03-08T06:57:15.722Z,99.90
2019-03-08T07:00:02.639Z,99.90
2019-03-08T07:02:32.150Z,99.90
2019-03-08T07:05:01.413Z,99.90
2019-03-08T07:07:30.600Z,99.90
2019-03-08T07:09:59.923Z,99.90
2019-03-08T07:12:29.233Z,99.90
2019-03-08T07:14:58.531Z,99.90
2019-03-08T07:17:28.330Z,99.90
2019-03-08T07:20:15.273Z,99.90
2019-03-08T07:23:03.568Z,99.90
2019-03-08T07:25:58.044Z,99.90
2019-03-08T07:28:49.082Z,99.90
2019-03-08T07:31:34.371Z,99.90
2019-03-08T07:34:21.724Z,99.90
2019-03-08T07:37:15.845Z,99.90
2019-03-08T07:39:50.911Z,99.90
2019-03-08T07:42:36.164Z,99.90
2019-03-08T07:45:24.944Z,99.90
2019-03-08T07:48:13.193Z,99.90
2019-03-08T07:51:01.873Z,99.90
2019-03-08T07:53:39.787Z,99.90
2019-03-08T07:56:22.968Z,99.90
2019-03-08T07:59:09.452Z,99.90
2019-03-08T08:01:56.675Z,99.90
2019-03-08T08:05:00.305Z,99.90
2019-03-08T08:07:40.201Z,99.90
2019-03-08T08:10:20.420Z,99.90
2019-03-08T08:13:07.642Z,99.90
2019-03-08T08:15:54.731Z,99.90
2019-03-08T08:18:47.099Z,99.90
2019-03-08T08:21:27.332Z,99.90
2019-03-08T08:24:09.884Z,99.90
2019-03-08T08:27:16.675Z,99.90
2019-03-08T08:30:10.907Z,99.90
2019-03-08T08:32:55.124Z,99.90
2019-03-08T08:35:33.859Z,99.90
2019-03-08T08:38:28.186Z,99.90
2019-03-08T08:41:34.880Z,99.90
2019-03-08T08:44:15.021Z,99.90
2019-03-08T08:47:30.703Z,99.90
2019-03-08T08:50:31.100Z,99.90
2019-03-08T08:53:19.027Z,99.90
2019-03-08T08:56:05.497Z,99.90
2019-03-08T08:58:48.283Z,99.90
2019-03-08T09:01:30.223Z,99.90
2019-03-08T09:04:14.966Z,99.90
2019-03-08T09:07:03.228Z,99.90
2019-03-08T09:09:54.364Z,99.90
2019-03-08T09:12:45.887Z,99.90
2019-03-08T09:15:37.617Z,99.90
2019-03-08T09:18:38.200Z,99.90
2019-03-08T09:21:25.606Z,99.90
2019-03-08T09:24:06.507Z,99.90
2019-03-08T09:26:46.444Z,99.90
2019-03-08T09:29:41.191Z,99.90
2019-03-08T09:32:27.647Z,99.90
2019-03-08T09:35:12.447Z,99.90
2019-03-08T09:38:06.970Z,99.90
2019-03-08T09:40:54.293Z,99.90
2019-03-08T09:43:51.726Z,98.20
2019-03-08T09:46:43.243Z,99.90
2019-03-08T09:49:38.907Z,99.40
2019-03-08T09:52:33.305Z,96.50
2019-03-08T09:55:20.174Z,98.30
2019-03-08T09:58:11.589Z,97.40
2019-03-08T10:01:03.127Z,99.80
2019-03-08T10:03:46.302Z,99.90
2019-03-08T10:06:51.163Z,98.50
2019-03-08T10:09:48.532Z,97.10
2019-03-08T10:12:39.744Z,99.10
2019-03-08T10:15:27.653Z,98.50
2019-03-08T10:18:09.372Z,99.20
2019-03-08T10:20:44.784Z,99.90
2019-03-08T10:23:31.911Z,96.50
2019-03-08T10:26:20.152Z,97.20
2019-03-08T10:29:02.112Z,95.90
2019-03-08T10:31:47.104Z,96.90
2019-03-08T10:34:32.784Z,96.60
2019-03-08T10:37:39.711Z,94.80
2019-03-08T10:40:31.023Z,95.50
2019-03-08T10:43:21.019Z,92.80
2019-03-08T10:46:02.814Z,92.20
2019-03-08T10:49:03.702Z,91.40
2019-03-08T10:51:39.548Z,91.10
2019-03-08T10:54:17.604Z,93.60
2019-03-08T10:57:08.691Z,95.30
2019-03-08T10:59:59.772Z,94.40
2019-03-08T11:03:00.140Z,95.50
2019-03-08T11:05:54.312Z,94.10
2019-03-08T11:08:41.444Z,95.00
2019-03-08T11:11:28.539Z,94.30
2019-03-08T11:14:17.104Z,91.00
2019-03-08T11:17:04.061Z,91.70
2019-03-08T11:19:55.363Z,91.20
2019-03-08T11:22:32.648Z,90.20
2019-03-08T11:25:08.798Z,86.10
2019-03-08T11:27:51.191Z,83.90
2019-03-08T11:30:38.486Z,83.20
2019-03-08T11:33:19.677Z,79.00
2019-03-08T11:35:58.455Z,78.50
2019-03-08T11:38:55.733Z,82.90
2019-03-08T11:41:52.863Z,80.20
2019-03-08T11:44:50.064Z,85.90
2019-03-08T11:47:53.392Z,89.40
2019-03-08T11:50:29.839Z,89.30
2019-03-08T11:53:21.362Z,84.80
2019-03-08T11:56:00.220Z,87.70
2019-03-08T11:59:03.815Z,84.40
2019-03-08T12:01:50.646Z,82.00
2019-03-08T12:04:29.801Z,76.90
2019-03-08T12:07:09.387Z,83.00
2019-03-08T12:09:46.955Z,89.10
2019-03-08T12:12:38.268Z,89.10
2019-03-08T12:15:28.824Z,89.00
2019-03-08T12:18:34.218Z,86.30
2019-03-08T12:21:28.587Z,85.80
2019-03-08T12:24:25.910Z,90.20
2019-03-08T12:27:17.160Z,90.20
2019-03-08T12:30:01.121Z,91.90
2019-03-08T12:32:49.391Z,93.80
2019-03-08T12:35:56.019Z,93.40
2019-03-08T12:38:47.575Z,93.20
2019-03-08T12:41:30.764Z,94.10
2019-03-08T12:44:25.184Z,91.20
2019-03-08T12:47:13.440Z,92.50
2019-03-08T12:50:05.188Z,93.00
2019-03-08T12:52:56.277Z,93.40
2019-03-08T12:55:49.105Z,93.10
2019-03-08T12:58:37.384Z,94.00
2019-03-08T13:01:31.755Z,92.50
2019-03-08T13:04:20.933Z,90.00
2019-03-08T13:07:11.966Z,83.70
2019-03-08T13:09:50.424Z,87.50
2019-03-08T13:12:19.811Z,89.80
2019-03-08T13:14:49.039Z,83.30
2019-03-08T13:17:18.452Z,80.80
2019-03-08T13:19:47.675Z,81.60
2019-03-08T13:22:16.888Z,82.50
2019-03-08T13:24:46.105Z,80.90
2019-03-08T13:27:15.348Z,74.60
2019-03-08T13:29:44.535Z,65.40
2019-03-08T13:32:13.971Z,59.50
2019-03-08T13:34:43.164Z,60.50
2019-03-08T13:37:12.379Z,65.30
2019-03-08T13:39:41.636Z,66.60
2019-03-08T13:42:10.931Z,68.50
2019-03-08T13:44:40.192Z,72.60
2019-03-08T13:47:09.402Z,71.30
2019-03-08T13:49:38.627Z,72.10
2019-03-08T13:52:07.812Z,65.90
2019-03-08T13:54:37.045Z,67.50
2019-03-08T13:57:06.355Z,64.40
2019-03-08T13:59:35.772Z,66.40
2019-03-08T14:02:05.087Z,64.70
2019-03-08T14:04:34.291Z,68.00
2019-03-08T14:07:03.516Z,71.90
2019-03-08T14:09:32.729Z,66.50
2019-03-08T14:12:01.958Z,71.10
2019-03-08T14:14:31.446Z,71.70
2019-03-08T14:17:00.669Z,73.10
2019-03-08T14:19:29.867Z,70.40
2019-03-08T14:21:59.216Z,72.50
2019-03-08T14:24:28.477Z,74.50
2019-03-08T14:26:57.700Z,71.50
2019-03-08T14:29:26.948Z,68.00
2019-03-08T14:32:15.363Z,70.40
2019-03-08T14:34:44.663Z,71.50
2019-03-08T14:37:16.223Z,63.40
2019-03-08T14:39:45.586Z,66.50
2019-03-08T14:42:26.865Z,68.00
2019-03-08T14:45:13.887Z,65.90
2019-03-08T14:47:46.076Z,65.30
2019-03-08T14:50:15.320Z,65.00
2019-03-08T14:52:44.529Z,57.00
2019-03-08T14:55:18.961Z,58.40
2019-03-08T14:57:46.511Z,59.40
2019-03-08T15:00:20.919Z,56.20
2019-03-08T15:02:50.178Z,58.60
2019-03-08T15:05:20.403Z,57.70
2019-03-08T15:07:49.824Z,61.00
2019-03-08T15:10:20.139Z,64.90
2019-03-08T15:12:49.623Z,62.40
2019-03-08T15:15:18.897Z,67.50
2019-03-08T15:17:49.533Z,68.70
2019-03-08T15:20:19.081Z,70.40
2019-03-08T15:22:48.580Z,74.60
2019-03-08T15:25:17.889Z,75.70
2019-03-08T15:27:47.271Z,72.30
2019-03-08T15:30:17.192Z,74.30
2019-03-08T15:32:46.543Z,74.30
2019-03-08T15:35:16.331Z,73.10
2019-03-08T15:37:45.583Z,76.80
2019-03-08T15:40:18.979Z,75.10
2019-03-08T15:42:48.232Z,77.90
2019-03-08T15:45:17.603Z,79.90
2019-03-08T15:47:47.312Z,80.40
2019-03-08T15:50:16.866Z,82.00
2019-03-08T15:52:46.110Z,83.80
2019-03-08T15:55:15.341Z,87.70
2019-03-08T15:57:44.599Z,88.70
2019-03-08T16:00:16.268Z,87.40
2019-03-08T16:02:45.579Z,86.70
2019-03-08T16:05:15.436Z,86.00
2019-03-08T16:07:44.753Z,86.80
2019-03-08T16:10:15.482Z,88.00
2019-03-08T16:12:44.935Z,88.70
2019-03-08T16:15:14.507Z,89.60
2019-03-08T16:17:43.717Z,90.10
2019-03-08T16:20:14.299Z,91.90
2019-03-08T16:22:43.709Z,92.60
2019-03-08T16:25:13.223Z,91.50
2019-03-08T16:27:42.440Z,92.70
2019-03-08T16:30:22.192Z,92.80
2019-03-08T16:33:13.772Z,93.10
2019-03-08T16:35:51.719Z,94.00
2019-03-08T16:38:30.864Z,95.40
2019-03-08T16:41:18.902Z,95.20
2019-03-08T16:44:05.808Z,96.40
2019-03-08T16:46:53.684Z,95.60
2019-03-08T16:49:48.172Z,95.30
2019-03-08T16:52:33.587Z,95.70
2019-03-08T16:55:38.250Z,96.60
2019-03-08T16:58:27.959Z,96.50
2019-03-08T17:01:15.207Z,97.90
2019-03-08T17:03:51.986Z,99.70
2019-03-08T17:06:34.784Z,99.90
2019-03-08T17:09:21.475Z,99.90
2019-03-08T17:12:04.772Z,99.90
2019-03-08T17:15:05.336Z,99.20
2019-03-08T17:17:52.123Z,98.90
2019-03-08T17:20:36.611Z,99.30
2019-03-08T17:23:15.025Z,98.70
2019-03-08T17:26:06.080Z,98.60
2019-03-08T17:28:54.620Z,99.20
2019-03-08T17:31:39.175Z,99.70
2019-03-08T17:34:27.479Z,99.90
2019-03-08T17:37:15.711Z,99.90
2019-03-08T17:40:02.893Z,99.90
2019-03-08T17:42:50.451Z,99.90
2019-03-08T17:45:41.660Z,99.90
2019-03-08T17:48:27.719Z,99.90
2019-03-08T17:51:15.791Z,99.90
2019-03-08T17:54:22.263Z,99.90
2019-03-08T17:57:09.540Z,99.90
2019-03-08T17:59:58.236Z,99.90
2019-03-08T18:02:55.504Z,99.90
2019-03-08T18:05:40.864Z,99.90
2019-03-08T18:08:28.095Z,99.90
2019-03-08T18:11:22.222Z,99.90
2019-03-08T18:14:08.444Z,99.90
2019-03-08T18:16:55.904Z,99.90
2019-03-08T18:19:44.140Z,99.90
2019-03-08T18:22:17.415Z,99.90
2019-03-08T18:25:02.603Z,99.90
2019-03-08T18:28:03.068Z,99.90
2019-03-08T18:31:00.407Z,99.90
2019-03-08T18:33:42.313Z,99.90
2019-03-08T18:36:21.484Z,99.70
2019-03-08T18:39:08.276Z,99.80
2019-03-08T18:41:59.808Z,99.90
2019-03-08T18:44:57.231Z,99.90
2019-03-08T18:47:42.888Z,99.90
2019-03-08T18:50:23.403Z,99.90
2019-03-08T18:53:15.347Z,99.50
2019-03-08T18:56:04.452Z,99.60
2019-03-08T18:58:49.295Z,99.90
2019-03-08T19:01:47.155Z,99.90
2019-03-08T19:04:24.899Z,99.90
2019-03-08T19:07:13.178Z,99.90
2019-03-08T19:10:16.560Z,99.90
2019-03-08T19:13:01.151Z,99.90
2019-03-08T19:15:49.926Z,99.90
2019-03-08T19:18:33.379Z,99.90
2019-03-08T19:21:36.773Z,99.90
2019-03-08T19:24:22.192Z,99.90
2019-03-08T19:27:02.467Z,99.90
2019-03-08T19:29:49.530Z,99.90
2019-03-08T19:32:41.559Z,99.90
2019-03-08T19:35:28.759Z,99.90
2019-03-08T19:38:32.439Z,99.90
2019-03-08T19:41:39.220Z,99.90
2019-03-08T19:44:30.317Z,99.90
2019-03-08T19:47:18.595Z,99.90
2019-03-08T19:49:58.969Z,99.90
2019-03-08T19:52:45.555Z,99.90
2019-03-08T19:55:18.931Z,99.90
2019-03-08T19:57:58.334Z,99.90
2019-03-08T20:00:52.480Z,99.90
2019-03-08T20:03:43.605Z,99.90
2019-03-08T20:06:27.724Z,99.90
2019-03-08T20:09:16.048Z,99.90
2019-03-08T20:12:16.592Z,99.90
2019-03-08T20:15:03.505Z,99.90
2019-03-08T20:17:51.831Z,99.90
2019-03-08T20:20:40.192Z,99.90
2019-03-08T20:23:34.897Z,99.90
2019-03-08T20:26:22.932Z,99.90
2019-03-08T20:29:06.295Z,99.90
2019-03-08T20:32:06.383Z,99.90
2019-03-08T20:34:54.661Z,99.90
2019-03-08T20:37:42.988Z,99.90
2019-03-08T20:40:34.372Z,99.90
2019-03-08T20:43:08.195Z,99.90
2019-03-08T20:45:50.691Z,99.90
2019-03-08T20:48:19.892Z,99.90
2019-03-08T20:50:49.194Z,99.90
2019-03-08T20:53:18.503Z,99.90
2019-03-08T20:55:48.033Z,99.90
2019-03-08T20:58:18.107Z,99.90
2019-03-08T21:00:47.505Z,99.90
2019-03-08T21:03:16.765Z,99.90
2019-03-08T21:05:46.231Z,99.90
2019-03-08T21:08:15.553Z,99.90
2019-03-08T21:10:44.784Z,99.90
2019-03-08T21:13:14.148Z,99.90
2019-03-08T21:15:43.441Z,99.90
2019-03-08T21:18:12.665Z,99.90
2019-03-08T21:20:42.062Z,99.90
2019-03-08T21:23:11.266Z,99.90
2019-03-08T21:25:40.504Z,99.90
2019-03-08T21:28:09.709Z,99.90
2019-03-08T21:30:38.926Z,99.90
2019-03-08T21:33:08.184Z,99.90
2019-03-08T21:35:37.415Z,99.90
2019-03-08T21:38:06.752Z,99.90
2019-03-08T21:40:35.952Z,99.90
2019-03-08T21:43:05.219Z,99.90
2019-03-08T21:45:34.479Z,99.90
2019-03-08T21:48:03.712Z,99.90
2019-03-08T21:50:32.912Z,99.90
2019-03-08T21:53:02.232Z,99.90
2019-03-08T21:55:31.704Z,99.90
2019-03-08T21:58:01.028Z,99.90
2019-03-08T22:00:30.236Z,99.90
2019-03-08T22:02:59.572Z,99.90
2019-03-08T22:05:32.151Z,99.90
2019-03-08T22:08:01.340Z,99.90
2019-03-08T22:10:42.981Z,99.90
2019-03-08T22:13:12.295Z,99.90
2019-03-08T22:15:41.493Z,99.90
2019-03-08T22:18:10.793Z,99.90
2019-03-08T22:20:40.083Z,99.90
2019-03-08T22:23:09.500Z,99.90
2019-03-08T22:25:38.747Z,99.90
2019-03-08T22:28:07.955Z,99.90
2019-03-08T22:30:37.255Z,99.90
2019-03-08T22:33:06.507Z,99.90
2019-03-08T22:35:35.988Z,99.90
2019-03-08T22:38:05.191Z,99.90
2019-03-08T22:40:34.403Z,99.90
2019-03-08T22:43:03.640Z,99.90
2019-03-08T22:45:32.861Z,99.90
2019-03-08T22:48:02.063Z,99.90
2019-03-08T22:50:31.265Z,99.90
2019-03-08T22:53:00.510Z,99.90
2019-03-08T22:55:29.726Z,99.90
2019-03-08T22:57:58.952Z,99.90
2019-03-08T23:01:00.981Z,99.90
2019-03-08T23:03:30.883Z,99.90
2019-03-08T23:06:00.167Z,99.90
2019-03-08T23:08:29.570Z,99.90
2019-03-08T23:10:58.789Z,99.90
2019-03-08T23:13:28.011Z,99.90
2019-03-08T23:15:57.183Z,99.90
2019-03-08T23:18:26.459Z,99.90
2019-03-08T23:20:55.993Z,99.90
2019-03-08T23:23:25.244Z,99.90
2019-03-08T23:25:54.503Z,99.90
2019-03-08T23:28:34.707Z,99.90
2019-03-08T23:31:09.484Z,99.90
2019-03-08T23:33:38.688Z,99.90
2019-03-08T23:36:07.889Z,99.90
2019-03-08T23:38:37.142Z,99.90
2019-03-08T23:41:06.329Z,99.90
2019-03-08T23:43:35.872Z,99.90
2019-03-08T23:46:05.091Z,99.90
2019-03-08T23:48:34.318Z,99.90
2019-03-08T23:51:03.539Z,99.90
2019-03-08T23:53:32.751Z,99.90
2019-03-08T23:56:01.935Z,99.90
2019-03-08T23:58:31.127Z,99.90
